Skip Navigation Links
NOAA logo - Click to go to the NOAA homepage
NOAA's National Weather Service
Alaska Aviation Weather Unit
  NWS logo - Click to go to the NWS homepage
Left Navbar Graphic     03 AKDT = 11 GMT

   
NOAA is celebrating 200 years of science, service, and stewardship. Visit the NOAA 200th celebration Web site to learn more.
USA.gov is the U.S. Government's official Web portal to all Federal, state and local government Web resources and services.
Facebook
NWS on Facebook

Important Change Regarding the AAWU Web Presence

 

Over the last several months, the AAWU has been working to navigate its webpages to a nationally supported server. Security, as well as other needs, have necessitated the change.  We have been given an extension for the site changeover while we diligently work at addressing feedback received. As of July 14, 2017, aawu.arh.noaa.gov will be discontinued. The new AAWU web address is weather.gov/aawu. It is now live and will run in-parallel with the old site until it is discontinued on July 14, 2017. Please continue to send any feedback or questions regarding the new webpages to nws.ar.aawu.webauthors@noaa.gov.  Thank you for your patience during this time of transition.
AAWU Home :: Display TAF Add Bookmark
TAF PAUN 231139Z 2312/2412  06004KT P6SM VCSH BKN020 OVC050
     FM232200 36012G20KT P6SM BKN040
     FM240600 04013G18KT P6SM SCT040 BKN080=

6515
FTAK31 PAFA 231139
TAFAQT
TAF
METAR PAUN 230556Z AUTO 29011KT 10SM OVC042 11/05 A2978 RMK AO2 SLP088
     60000 T01060050 10117 20106 58007=

METAR PAUN 230656Z AUTO 25007KT 10SM OVC033 11/05 A2978 RMK AO2
 SLP089 T01060050=

METAR PAUN 230756Z AUTO 26005KT 10SM OVC042 11/04 A2977 RMK AO2 SLP086
     T01060044=

METAR PAUN 230856Z AUTO 21008KT 10SM FEW030 OVC050 10/07 A2976 RMK
 AO2 SLP082 T01000067 401170100 58006=

PAUN 230935Z AUTO 12006KT 10SM BKN019 OVC030 09/07 A2975 RMK
     AO2=

METAR PAUN 230956Z AUTO 31007KT 9SM -RA SCT017 BKN026 OVC046 09/08 A2975
     RMK AO2 RAB38 SLP079 P0000 T00940078=

SPECI PAUN 231006Z AUTO 01004KT 10SM -RA FEW017 SCT024 OVC046 08/07
 A2975 RMK AO2 P0000=

METAR PAUN 231056Z AUTO 09005KT 10SM SCT040 OVC050 08/07 A2975 RMK AO2
     RAE09 SLP079 P0000 T00780067=

SPECI PAUN 231123Z AUTO 06005KT 10SM BKN020 BKN024 OVC050 08/07 A2974
     RMK AO2=


NOAA's National Weather Service
Alaska Aviation Weather Unit
6930 Sand Lake Road
Anchorage, AK 99502-1845
Disclaimer
Credits
Glossary
Privacy Policy
About Us
Career Opportunities
Contact AAWU Internet Services Site last modified: April, 17th 2012